PWSweather.com
Personal Weather Stations
Station Observations
IPUMONTE2
MontelabbateIT 61025

MontelabbateIT 61025

Lat: 43.848, Lon: 12.7895

Elevation: 196

Station Type: LaCrosse WS3600

http://www.montelabbatemet.altervista.org/

High Low Average
Temperature 74.1°F23.4°F 64.9°F18.3°F 69.2°F20.7°F
Dew Point 64.6°F18.1°F 56.8°F13.8°F 60.7°F15.9°F
Winds 7.5 mph -12.1 mph - Calm Calm 1.1 mph 1.8 mph
Wind Gusts 10.0 mph16.1 mph -- 2.0 mph3.2 mph
Humidity 89% 62% 75%
Pressure 29.73 in1006.80 in 29.62 in1003.00 in -
Precipitation 0.36 in9.10 in - -
Hour Temp Dew Point Humidity Winds Wind Gusts Pressure Precip Precip Rate Daily Precip Total
12:02 AM 70.8°F21.6°C 57.2°F14.0°C 63% Calm Calm -- 29.67 in1004.7 mb 0.00 in0.0 mm 0.00 in0.0 mm 0.00 in0.0 mm
12:07 AM 70.8°F21.6°C 57.2°F14.0°C 63% Calm Calm -- 29.68 in1005.1 mb 0.00 in0.0 mm 0.00 in0.0 mm 0.00 in0.0 mm
12:13 AM 70.7°F21.5°C 57.4°F14.1°C 63% 0.4 mph S0.6 kmh S 0.4 mph0.6 kmh 29.68 in1005.1 mb 0.00 in0.0 mm 0.00 in0.0 mm 0.00 in0.0 mm
12:17 AM 70.5°F21.4°C 57.3°F14.1°C 63% Calm Calm 0.4 mph0.6 kmh 29.68 in1005.1 mb 0.00 in0.0 mm 0.00 in0.0 mm 0.00 in0.0 mm
12:22 AM 70.5°F21.4°C 57.3°F14.1°C 63% Calm Calm -- 29.67 in1004.7 mb 0.00 in0.0 mm 0.00 in0.0 mm 0.00 in0.0 mm
12:28 AM 70.3°F21.3°C 57.1°F13.9°C 63% Calm Calm -- 29.67 in1004.7 mb 0.00 in0.0 mm 0.00 in0.0 mm 0.00 in0.0 mm
12:33 AM 70.5°F21.4°C 57.3°F14.1°C 63% Calm Calm -- 29.67 in1004.7 mb 0.00 in0.0 mm 0.00 in0.0 mm 0.00 in0.0 mm
12:38 AM 70.5°F21.4°C 57.3°F14.1°C 63% Calm Calm -- 29.67 in1004.7 mb 0.00 in0.0 mm 0.00 in0.0 mm 0.00 in0.0 mm
12:43 AM 70.5°F21.4°C 57.3°F14.1°C 62% 0.8 mph NW1.3 kmh NW 0.8 mph1.3 kmh 29.67 in1004.7 mb 0.00 in0.0 mm 0.00 in0.0 mm 0.00 in0.0 mm
12:48 AM 70.5°F21.4°C 57.3°F14.1°C 62% Calm Calm 0.8 mph1.3 kmh 29.67 in1004.7 mb 0.00 in0.0 mm 0.00 in0.0 mm 0.00 in0.0 mm
12:53 AM 70.3°F21.3°C 57.1°F13.9°C 63% Calm Calm -- 29.66 in1004.4 mb 0.00 in0.0 mm 0.00 in0.0 mm 0.00 in0.0 mm
12:58 AM 69.8°F21.0°C 57.0°F13.9°C 64% Calm Calm 2.0 mph3.2 kmh 29.66 in1004.4 mb 0.00 in0.0 mm 0.00 in0.0 mm 0.00 in0.0 mm
01:03 AM 69.6°F20.9°C 56.8°F13.8°C 64% Calm Calm 2.0 mph3.2 kmh 29.66 in1004.4 mb 0.00 in0.0 mm 0.00 in0.0 mm 0.00 in0.0 mm
01:08 AM 69.6°F20.9°C 56.8°F13.8°C 64% Calm Calm -- 29.66 in1004.4 mb 0.00 in0.0 mm 0.00 in0.0 mm 0.00 in0.0 mm
01:13 AM 69.4°F20.8°C 57.1°F13.9°C 65% 2.7 mph SW4.3 kmh SW 2.9 mph4.7 kmh 29.66 in1004.4 mb 0.00 in0.0 mm 0.00 in0.0 mm 0.00 in0.0 mm
01:18 AM 68.9°F20.5°C 57.4°F14.1°C 67% 2.4 mph SSW3.9 kmh SSW 2.9 mph4.7 kmh 29.66 in1004.4 mb 0.00 in0.0 mm 0.00 in0.0 mm 0.00 in0.0 mm
01:23 AM 68.7°F20.4°C 57.2°F14.0°C 68% 1.6 mph S2.6 kmh S 2.4 mph3.9 kmh 29.66 in1004.4 mb 0.00 in0.0 mm 0.00 in0.0 mm 0.00 in0.0 mm
01:28 AM 68.5°F20.3°C 57.5°F14.2°C 68% 0.8 mph S1.3 kmh S 2.6 mph4.2 kmh 29.65 in1004.1 mb 0.00 in0.0 mm 0.00 in0.0 mm 0.00 in0.0 mm
01:33 AM 68.5°F20.3°C 57.5°F14.2°C 68% Calm Calm 2.6 mph4.2 kmh 29.65 in1004.1 mb 0.00 in0.0 mm 0.00 in0.0 mm 0.00 in0.0 mm
01:38 AM 68.7°F20.4°C 57.7°F14.3°C 68% Calm Calm -- 29.65 in1004.1 mb 0.00 in0.0 mm 0.00 in0.0 mm 0.00 in0.0 mm
01:43 AM 68.9°F20.5°C 57.4°F14.1°C 67% 0.8 mph NE1.3 kmh NE 1.1 mph1.8 kmh 29.65 in1004.1 mb 0.00 in0.0 mm 0.00 in0.0 mm 0.00 in0.0 mm
01:48 AM 68.7°F20.4°C 57.7°F14.3°C 68% Calm Calm 1.1 mph1.8 kmh 29.65 in1004.1 mb 0.00 in0.0 mm 0.00 in0.0 mm 0.00 in0.0 mm
01:53 AM 68.7°F20.4°C 57.7°F14.3°C 68% Calm Calm 1.1 mph1.8 kmh 29.65 in1004.1 mb 0.00 in0.0 mm 0.00 in0.0 mm 0.00 in0.0 mm
01:58 AM 68.7°F20.4°C 57.7°F14.3°C 69% Calm Calm -- 29.65 in1004.1 mb 0.00 in0.0 mm 0.00 in0.0 mm 0.00 in0.0 mm
02:03 AM 68.5°F20.3°C 57.9°F14.4°C 69% Calm Calm -- 29.65 in1004.1 mb 0.00 in0.0 mm 0.00 in0.0 mm 0.00 in0.0 mm
02:08 AM 68.5°F20.3°C 57.9°F14.4°C 70% Calm Calm -- 29.65 in1004.1 mb 0.00 in0.0 mm 0.00 in0.0 mm 0.00 in0.0 mm
02:13 AM 68.5°F20.3°C 57.9°F14.4°C 70% Calm Calm -- 29.65 in1004.1 mb 0.00 in0.0 mm 0.00 in0.0 mm 0.00 in0.0 mm
02:18 AM 68.5°F20.3°C 57.9°F14.4°C 70% Calm Calm -- 29.64 in1003.7 mb 0.00 in0.0 mm 0.00 in0.0 mm 0.00 in0.0 mm
02:23 AM 68.3°F20.2°C 58.2°F14.6°C 70% Calm Calm -- 29.64 in1003.7 mb 0.00 in0.0 mm 0.00 in0.0 mm 0.00 in0.0 mm
02:28 AM 68.5°F20.3°C 58.4°F14.7°C 70% Calm Calm -- 29.64 in1003.7 mb 0.00 in0.0 mm 0.00 in0.0 mm 0.00 in0.0 mm
02:33 AM 68.3°F20.2°C 58.2°F14.6°C 70% 2.2 mph NNE3.5 kmh NNE 2.2 mph3.5 kmh 29.64 in1003.7 mb 0.00 in0.0 mm 0.00 in0.0 mm 0.00 in0.0 mm
02:38 AM 68.1°F20.1°C 58.0°F14.4°C 70% Calm Calm 2.2 mph3.5 kmh 29.63 in1003.4 mb 0.00 in0.0 mm 0.00 in0.0 mm 0.00 in0.0 mm
02:43 AM 67.8°F19.9°C 57.7°F14.3°C 70% Calm Calm -- 29.63 in1003.4 mb 0.00 in0.0 mm 0.00 in0.0 mm 0.00 in0.0 mm
02:48 AM 67.6°F19.8°C 57.5°F14.2°C 70% Calm Calm -- 29.64 in1003.7 mb 0.00 in0.0 mm 0.00 in0.0 mm 0.00 in0.0 mm
02:53 AM 67.6°F19.8°C 57.5°F14.2°C 71% Calm Calm -- 29.64 in1003.7 mb 0.00 in0.0 mm 0.00 in0.0 mm 0.00 in0.0 mm
02:58 AM 67.6°F19.8°C 57.5°F14.2°C 72% 1.5 mph SSW2.4 kmh SSW 1.5 mph2.4 kmh 29.64 in1003.7 mb 0.00 in0.0 mm 0.00 in0.0 mm 0.00 in0.0 mm
03:03 AM 67.6°F19.8°C 57.5°F14.2°C 72% Calm Calm 1.5 mph2.4 kmh 29.63 in1003.4 mb 0.00 in0.0 mm 0.00 in0.0 mm 0.00 in0.0 mm
03:08 AM 67.6°F19.8°C 57.5°F14.2°C 72% 1.3 mph S2.1 kmh S 1.5 mph2.4 kmh 29.63 in1003.4 mb 0.00 in0.0 mm 0.00 in0.0 mm 0.00 in0.0 mm
03:13 AM 67.6°F19.8°C 57.5°F14.2°C 72% Calm Calm 1.3 mph2.1 kmh 29.63 in1003.4 mb 0.00 in0.0 mm 0.00 in0.0 mm 0.00 in0.0 mm
03:18 AM 67.6°F19.8°C 57.5°F14.2°C 72% Calm Calm -- 29.63 in1003.4 mb 0.00 in0.0 mm 0.00 in0.0 mm 0.00 in0.0 mm
03:23 AM 67.6°F19.8°C 57.5°F14.2°C 72% Calm Calm -- 29.63 in1003.4 mb 0.00 in0.0 mm 0.00 in0.0 mm 0.00 in0.0 mm
03:28 AM 67.6°F19.8°C 57.5°F14.2°C 72% Calm Calm -- 29.63 in1003.4 mb 0.00 in0.0 mm 0.00 in0.0 mm 0.00 in0.0 mm
03:33 AM 67.6°F19.8°C 58.3°F14.6°C 72% Calm Calm -- 29.63 in1003.4 mb 0.00 in0.0 mm 0.00 in0.0 mm 0.00 in0.0 mm
03:38 AM 67.4°F19.7°C 58.1°F14.5°C 72% Calm Calm -- 29.63 in1003.4 mb 0.00 in0.0 mm 0.00 in0.0 mm 0.00 in0.0 mm
03:43 AM 67.6°F19.8°C 58.3°F14.6°C 72% Calm Calm -- 29.63 in1003.4 mb 0.00 in0.0 mm 0.00 in0.0 mm 0.00 in0.0 mm
03:48 AM 67.6°F19.8°C 58.3°F14.6°C 73% Calm Calm -- 29.63 in1003.4 mb 0.00 in0.0 mm 0.00 in0.0 mm 0.00 in0.0 mm
03:53 AM 67.6°F19.8°C 58.3°F14.6°C 73% Calm Calm -- 29.63 in1003.4 mb 0.00 in0.0 mm 0.00 in0.0 mm 0.00 in0.0 mm
03:58 AM 67.2°F19.6°C 58.3°F14.6°C 74% Calm Calm -- 29.63 in1003.4 mb 0.00 in0.0 mm 0.00 in0.0 mm 0.00 in0.0 mm
04:03 AM 66.9°F19.4°C 58.3°F14.6°C 74% Calm Calm -- 29.63 in1003.4 mb 0.00 in0.0 mm 0.00 in0.0 mm 0.00 in0.0 mm
04:10 AM 66.9°F19.4°C 58.7°F14.8°C 75% Calm Calm -- 29.63 in1003.4 mb 0.00 in0.0 mm 0.00 in0.0 mm 0.00 in0.0 mm
04:15 AM 67.1°F19.5°C 58.9°F14.9°C 75% Calm Calm -- 29.63 in1003.4 mb 0.00 in0.0 mm 0.00 in0.0 mm 0.00 in0.0 mm
04:20 AM 67.2°F19.6°C 59.0°F15.0°C 75% Calm Calm -- 29.63 in1003.4 mb 0.00 in0.0 mm 0.00 in0.0 mm 0.00 in0.0 mm
04:25 AM 67.2°F19.6°C 59.0°F15.0°C 75% Calm Calm -- 29.63 in1003.4 mb 0.00 in0.0 mm 0.00 in0.0 mm 0.00 in0.0 mm
04:30 AM 66.9°F19.4°C 58.7°F14.8°C 75% Calm Calm -- 29.63 in1003.4 mb 0.00 in0.0 mm 0.00 in0.0 mm 0.00 in0.0 mm
04:35 AM 66.7°F19.3°C 58.5°F14.7°C 75% Calm Calm -- 29.62 in1003.0 mb 0.00 in0.0 mm 0.00 in0.0 mm 0.00 in0.0 mm
04:40 AM 66.9°F19.4°C 59.1°F15.1°C 76% Calm Calm -- 29.62 in1003.0 mb 0.00 in0.0 mm 0.00 in0.0 mm 0.00 in0.0 mm
04:45 AM 66.9°F19.4°C 58.7°F14.8°C 75% Calm Calm -- 29.63 in1003.4 mb 0.00 in0.0 mm 0.00 in0.0 mm 0.00 in0.0 mm
04:50 AM 66.7°F19.3°C 58.9°F14.9°C 76% Calm Calm -- 29.63 in1003.4 mb 0.00 in0.0 mm 0.00 in0.0 mm 0.00 in0.0 mm
04:55 AM 66.7°F19.3°C 58.9°F14.9°C 76% Calm Calm -- 29.62 in1003.0 mb 0.00 in0.0 mm 0.00 in0.0 mm 0.00 in0.0 mm
05:00 AM 66.7°F19.3°C 58.9°F14.9°C 76% Calm Calm -- 29.63 in1003.4 mb 0.00 in0.0 mm 0.00 in0.0 mm 0.00 in0.0 mm
05:05 AM 66.9°F19.4°C 58.7°F14.8°C 75% Calm Calm -- 29.63 in1003.4 mb 0.00 in0.0 mm 0.00 in0.0 mm 0.00 in0.0 mm
05:10 AM 67.1°F19.5°C 58.9°F14.9°C 75% Calm Calm -- 29.63 in1003.4 mb 0.00 in0.0 mm 0.00 in0.0 mm 0.00 in0.0 mm
05:15 AM 67.2°F19.6°C 59.0°F15.0°C 75% Calm Calm -- 29.63 in1003.4 mb 0.00 in0.0 mm 0.00 in0.0 mm 0.00 in0.0 mm
05:20 AM 67.2°F19.6°C 59.0°F15.0°C 75% Calm Calm -- 29.63 in1003.4 mb 0.00 in0.0 mm 0.00 in0.0 mm 0.00 in0.0 mm
05:25 AM 67.2°F19.6°C 59.0°F15.0°C 75% Calm Calm -- 29.63 in1003.4 mb 0.00 in0.0 mm 0.00 in0.0 mm 0.00 in0.0 mm
05:30 AM 66.9°F19.4°C 58.7°F14.8°C 75% Calm Calm -- 29.63 in1003.4 mb 0.00 in0.0 mm 0.00 in0.0 mm 0.00 in0.0 mm
05:35 AM 66.9°F19.4°C 58.7°F14.8°C 75% Calm Calm -- 29.63 in1003.4 mb 0.00 in0.0 mm 0.00 in0.0 mm 0.00 in0.0 mm
05:40 AM 66.9°F19.4°C 58.7°F14.8°C 76% Calm Calm -- 29.63 in1003.4 mb 0.00 in0.0 mm 0.00 in0.0 mm 0.00 in0.0 mm
05:45 AM 66.9°F19.4°C 58.7°F14.8°C 75% Calm Calm -- 29.63 in1003.4 mb 0.00 in0.0 mm 0.00 in0.0 mm 0.00 in0.0 mm
05:50 AM 67.4°F19.7°C 59.2°F15.1°C 75% Calm Calm -- 29.62 in1003.0 mb 0.00 in0.0 mm 0.00 in0.0 mm 0.00 in0.0 mm
05:55 AM 67.6°F19.8°C 59.8°F15.4°C 76% Calm Calm -- 29.62 in1003.0 mb 0.00 in0.0 mm 0.00 in0.0 mm 0.00 in0.0 mm
06:00 AM 68.0°F20.0°C 59.8°F15.4°C 75% Calm Calm -- 29.62 in1003.0 mb 0.00 in0.0 mm 0.00 in0.0 mm 0.00 in0.0 mm
06:05 AM 68.1°F20.1°C 59.5°F15.3°C 74% Calm Calm -- 29.62 in1003.0 mb 0.00 in0.0 mm 0.00 in0.0 mm 0.00 in0.0 mm
06:10 AM 68.5°F20.3°C 59.9°F15.5°C 74% Calm Calm -- 29.63 in1003.4 mb 0.00 in0.0 mm 0.00 in0.0 mm 0.00 in0.0 mm
06:15 AM 68.5°F20.3°C 59.9°F15.5°C 73% Calm Calm -- 29.63 in1003.4 mb 0.00 in0.0 mm 0.00 in0.0 mm 0.00 in0.0 mm
06:20 AM 68.5°F20.3°C 59.9°F15.5°C 72% Calm Calm -- 29.63 in1003.4 mb 0.00 in0.0 mm 0.00 in0.0 mm 0.00 in0.0 mm
06:25 AM 69.0°F20.6°C 60.0°F15.6°C 73% Calm Calm -- 29.62 in1003.0 mb 0.00 in0.0 mm 0.00 in0.0 mm 0.00 in0.0 mm
06:30 AM 69.0°F20.6°C 60.0°F15.6°C 72% Calm Calm -- 29.63 in1003.4 mb 0.00 in0.0 mm 0.00 in0.0 mm 0.00 in0.0 mm
06:35 AM 69.6°F20.9°C 60.1°F15.6°C 72% Calm Calm -- 29.62 in1003.0 mb 0.00 in0.0 mm 0.00 in0.0 mm 0.00 in0.0 mm
06:40 AM 69.9°F21.1°C 60.1°F15.6°C 71% Calm Calm -- 29.62 in1003.0 mb 0.00 in0.0 mm 0.00 in0.0 mm 0.00 in0.0 mm
06:45 AM 70.7°F21.5°C 60.8°F16.0°C 71% Calm Calm -- 29.63 in1003.4 mb 0.00 in0.0 mm 0.00 in0.0 mm 0.00 in0.0 mm
06:50 AM 70.7°F21.5°C 60.4°F15.8°C 70% Calm Calm -- 29.62 in1003.0 mb 0.00 in0.0 mm 0.00 in0.0 mm 0.00 in0.0 mm
06:55 AM 70.5°F21.4°C 59.8°F15.4°C 69% Calm Calm -- 29.63 in1003.4 mb 0.00 in0.0 mm 0.00 in0.0 mm 0.00 in0.0 mm
07:00 AM 70.7°F21.5°C 60.0°F15.6°C 69% Calm Calm -- 29.63 in1003.4 mb 0.00 in0.0 mm 0.00 in0.0 mm 0.00 in0.0 mm
07:05 AM 71.2°F21.8°C 60.1°F15.6°C 68% Calm Calm -- 29.63 in1003.4 mb 0.00 in0.0 mm 0.00 in0.0 mm 0.00 in0.0 mm
07:10 AM 71.2°F21.8°C 60.1°F15.6°C 68% Calm Calm -- 29.63 in1003.4 mb 0.00 in0.0 mm 0.00 in0.0 mm 0.00 in0.0 mm
07:15 AM 70.8°F21.6°C 60.1°F15.6°C 69% Calm Calm -- 29.63 in1003.4 mb 0.00 in0.0 mm 0.00 in0.0 mm 0.00 in0.0 mm
07:20 AM 70.5°F21.4°C 59.8°F15.4°C 70% Calm Calm -- 29.63 in1003.4 mb 0.00 in0.0 mm 0.00 in0.0 mm 0.00 in0.0 mm
07:25 AM 70.3°F21.3°C 60.4°F15.8°C 71% Calm Calm -- 29.63 in1003.4 mb 0.00 in0.0 mm 0.00 in0.0 mm 0.00 in0.0 mm
07:30 AM 70.1°F21.2°C 60.2°F15.7°C 71% Calm Calm -- 29.63 in1003.4 mb 0.00 in0.0 mm 0.00 in0.0 mm 0.00 in0.0 mm
07:35 AM 69.9°F21.1°C 60.1°F15.6°C 71% Calm Calm -- 29.63 in1003.4 mb 0.00 in0.0 mm 0.00 in0.0 mm 0.00 in0.0 mm
07:40 AM 69.9°F21.1°C 60.1°F15.6°C 71% Calm Calm -- 29.63 in1003.4 mb 0.00 in0.0 mm 0.00 in0.0 mm 0.00 in0.0 mm
07:45 AM 69.9°F21.1°C 60.1°F15.6°C 71% Calm Calm -- 29.63 in1003.4 mb 0.00 in0.0 mm 0.00 in0.0 mm 0.00 in0.0 mm
07:50 AM 69.9°F21.1°C 60.1°F15.6°C 73% Calm Calm -- 29.63 in1003.4 mb 0.00 in0.0 mm 0.00 in0.0 mm 0.00 in0.0 mm
07:55 AM 69.9°F21.1°C 60.1°F15.6°C 73% Calm Calm -- 29.63 in1003.4 mb 0.00 in0.0 mm 0.00 in0.0 mm 0.00 in0.0 mm
08:00 AM 69.9°F21.1°C 60.1°F15.6°C 73% Calm Calm -- 29.63 in1003.4 mb 0.00 in0.0 mm 0.00 in0.0 mm 0.00 in0.0 mm
08:05 AM 69.9°F21.1°C 60.8°F16.0°C 72% Calm Calm -- 29.64 in1003.7 mb 0.00 in0.0 mm 0.00 in0.0 mm 0.00 in0.0 mm
08:10 AM 70.1°F21.2°C 60.6°F15.9°C 72% Calm Calm -- 29.64 in1003.7 mb 0.00 in0.0 mm 0.00 in0.0 mm 0.00 in0.0 mm
08:15 AM 70.1°F21.2°C 60.6°F15.9°C 73% Calm Calm -- 29.64 in1003.7 mb 0.00 in0.0 mm 0.00 in0.0 mm 0.00 in0.0 mm
08:20 AM 70.1°F21.2°C 60.6°F15.9°C 73% Calm Calm -- 29.64 in1003.7 mb 0.00 in0.0 mm 0.00 in0.0 mm 0.00 in0.0 mm
08:25 AM 70.1°F21.2°C 60.6°F15.9°C 73% Calm Calm -- 29.64 in1003.7 mb 0.00 in0.0 mm 0.00 in0.0 mm 0.00 in0.0 mm
08:30 AM 70.3°F21.3°C 61.2°F16.2°C 73% Calm Calm -- 29.65 in1004.1 mb 0.00 in0.0 mm 0.00 in0.0 mm 0.00 in0.0 mm
08:35 AM 70.5°F21.4°C 61.3°F16.3°C 73% Calm Calm -- 29.65 in1004.1 mb 0.00 in0.0 mm 0.00 in0.0 mm 0.00 in0.0 mm
08:40 AM 70.3°F21.3°C 61.2°F16.2°C 73% Calm Calm -- 29.65 in1004.1 mb 0.00 in0.0 mm 0.00 in0.0 mm 0.00 in0.0 mm
08:45 AM 69.9°F21.1°C 60.8°F16.0°C 73% Calm Calm -- 29.65 in1004.1 mb 0.00 in0.0 mm 0.00 in0.0 mm 0.00 in0.0 mm
08:50 AM 70.1°F21.2°C 61.4°F16.3°C 74% Calm Calm -- 29.65 in1004.1 mb 0.00 in0.0 mm 0.00 in0.0 mm 0.00 in0.0 mm
08:55 AM 70.1°F21.2°C 61.4°F16.3°C 74% Calm Calm -- 29.65 in1004.1 mb 0.00 in0.0 mm 0.00 in0.0 mm 0.00 in0.0 mm
09:00 AM 70.1°F21.2°C 61.4°F16.3°C 75% Calm Calm -- 29.65 in1004.1 mb 0.00 in0.0 mm 0.00 in0.0 mm 0.00 in0.0 mm
09:05 AM 70.3°F21.3°C 61.5°F16.4°C 74% Calm Calm -- 29.65 in1004.1 mb 0.00 in0.0 mm 0.00 in0.0 mm 0.00 in0.0 mm
09:11 AM 70.3°F21.3°C 61.5°F16.4°C 74% Calm Calm -- 29.64 in1003.7 mb 0.00 in0.0 mm 0.00 in0.0 mm 0.00 in0.0 mm
09:16 AM 70.5°F21.4°C 61.3°F16.3°C 73% Calm Calm -- 29.65 in1004.1 mb 0.00 in0.0 mm 0.00 in0.0 mm 0.00 in0.0 mm
09:21 AM 70.1°F21.2°C 61.4°F16.3°C 74% Calm Calm -- 29.65 in1004.1 mb 0.00 in0.0 mm 0.00 in0.0 mm 0.00 in0.0 mm
09:26 AM 69.9°F21.1°C 61.6°F16.4°C 75% Calm Calm -- 29.65 in1004.1 mb 0.00 in0.0 mm 0.00 in0.0 mm 0.00 in0.0 mm
09:31 AM 69.9°F21.1°C 61.6°F16.4°C 75% Calm Calm -- 29.65 in1004.1 mb 0.00 in0.0 mm 0.00 in0.0 mm 0.00 in0.0 mm
09:36 AM 69.9°F21.1°C 61.6°F16.4°C 75% Calm Calm -- 29.64 in1003.7 mb 0.00 in0.0 mm 0.00 in0.0 mm 0.00 in0.0 mm
09:41 AM 69.6°F20.9°C 61.2°F16.2°C 75% Calm Calm -- 29.65 in1004.1 mb 0.00 in0.0 mm 0.00 in0.0 mm 0.00 in0.0 mm
09:46 AM 69.6°F20.9°C 61.2°F16.2°C 75% Calm Calm -- 29.65 in1004.1 mb 0.00 in0.0 mm 0.00 in0.0 mm 0.00 in0.0 mm
09:51 AM 69.6°F20.9°C 61.2°F16.2°C 75% Calm Calm -- 29.65 in1004.1 mb 0.00 in0.0 mm 0.00 in0.0 mm 0.00 in0.0 mm
09:56 AM 69.9°F21.1°C 61.6°F16.4°C 75% Calm Calm -- 29.65 in1004.1 mb 0.00 in0.0 mm 0.00 in0.0 mm 0.00 in0.0 mm
10:01 AM 70.1°F21.2°C 62.1°F16.7°C 76% Calm Calm -- 29.65 in1004.1 mb 0.00 in0.0 mm 0.00 in0.0 mm 0.00 in0.0 mm
10:06 AM 69.6°F20.9°C 61.6°F16.4°C 77% Calm Calm -- 29.65 in1004.1 mb 0.00 in0.0 mm 0.00 in0.0 mm 0.00 in0.0 mm
10:11 AM 69.0°F20.6°C 61.5°F16.4°C 77% Calm Calm -- 29.65 in1004.1 mb 0.00 in0.0 mm 0.00 in0.0 mm 0.00 in0.0 mm
10:16 AM 68.9°F20.5°C 61.7°F16.5°C 78% Calm Calm -- 29.65 in1004.1 mb 0.00 in0.0 mm 0.00 in0.0 mm 0.00 in0.0 mm
10:21 AM 69.0°F20.6°C 62.2°F16.8°C 79% Calm Calm -- 29.65 in1004.1 mb 0.00 in0.0 mm 0.00 in0.0 mm 0.00 in0.0 mm
10:26 AM 69.2°F20.7°C 62.4°F16.9°C 79% Calm Calm -- 29.64 in1003.7 mb 0.00 in0.0 mm 0.00 in0.0 mm 0.00 in0.0 mm
10:31 AM 69.4°F20.8°C 62.6°F17.0°C 79% Calm Calm -- 29.65 in1004.1 mb 0.00 in0.0 mm 0.00 in0.0 mm 0.00 in0.0 mm
10:36 AM 69.4°F20.8°C 62.6°F17.0°C 79% Calm Calm -- 29.65 in1004.1 mb 0.00 in0.0 mm 0.00 in0.0 mm 0.00 in0.0 mm
10:41 AM 69.4°F20.8°C 62.6°F17.0°C 79% Calm Calm -- 29.65 in1004.1 mb 0.00 in0.0 mm 0.00 in0.0 mm 0.00 in0.0 mm
10:46 AM 69.4°F20.8°C 62.6°F17.0°C 79% Calm Calm -- 29.65 in1004.1 mb 0.00 in0.0 mm 0.00 in0.0 mm 0.00 in0.0 mm
10:51 AM 69.4°F20.8°C 62.6°F17.0°C 79% Calm Calm -- 29.65 in1004.1 mb 0.00 in0.0 mm 0.00 in0.0 mm 0.00 in0.0 mm
10:56 AM 69.6°F20.9°C 62.7°F17.1°C 79% Calm Calm -- 29.65 in1004.1 mb 0.00 in0.0 mm 0.00 in0.0 mm 0.00 in0.0 mm
11:01 AM 69.6°F20.9°C 62.7°F17.1°C 79% Calm Calm -- 29.65 in1004.1 mb 0.00 in0.0 mm 0.00 in0.0 mm 0.00 in0.0 mm
11:06 AM 70.1°F21.2°C 63.3°F17.4°C 78% Calm Calm -- 29.65 in1004.1 mb 0.00 in0.0 mm 0.00 in0.0 mm 0.00 in0.0 mm
11:11 AM 70.1°F21.2°C 63.3°F17.4°C 78% Calm Calm -- 29.65 in1004.1 mb 0.00 in0.0 mm 0.00 in0.0 mm 0.00 in0.0 mm
11:16 AM 69.9°F21.1°C 62.7°F17.1°C 78% Calm Calm -- 29.65 in1004.1 mb 0.00 in0.0 mm 0.00 in0.0 mm 0.00 in0.0 mm
11:21 AM 70.5°F21.4°C 63.2°F17.3°C 78% Calm Calm -- 29.65 in1004.1 mb 0.00 in0.0 mm 0.00 in0.0 mm 0.00 in0.0 mm
11:26 AM 71.0°F21.7°C 63.4°F17.4°C 77% Calm Calm -- 29.65 in1004.1 mb 0.00 in0.0 mm 0.00 in0.0 mm 0.00 in0.0 mm
11:31 AM 71.2°F21.8°C 63.6°F17.6°C 77% Calm Calm -- 29.65 in1004.1 mb 0.00 in0.0 mm 0.00 in0.0 mm 0.00 in0.0 mm
11:36 AM 71.2°F21.8°C 63.6°F17.6°C 76% Calm Calm -- 29.65 in1004.1 mb 0.00 in0.0 mm 0.00 in0.0 mm 0.00 in0.0 mm
11:41 AM 71.6°F22.0°C 63.6°F17.6°C 76% Calm Calm -- 29.65 in1004.1 mb 0.00 in0.0 mm 0.00 in0.0 mm 0.00 in0.0 mm
11:46 AM 71.9°F22.2°C 63.9°F17.7°C 76% Calm Calm -- 29.65 in1004.1 mb 0.00 in0.0 mm 0.00 in0.0 mm 0.00 in0.0 mm
11:51 AM 71.9°F22.2°C 63.9°F17.7°C 76% Calm Calm -- 29.65 in1004.1 mb 0.00 in0.0 mm 0.00 in0.0 mm 0.00 in0.0 mm
11:56 AM 72.1°F22.3°C 64.1°F17.8°C 76% Calm Calm -- 29.65 in1004.1 mb 0.00 in0.0 mm 0.00 in0.0 mm 0.00 in0.0 mm
12:01 PM 72.3°F22.4°C 64.3°F17.9°C 76% Calm Calm -- 29.66 in1004.4 mb 0.00 in0.0 mm 0.00 in0.0 mm 0.00 in0.0 mm
12:06 PM 72.6°F22.6°C 64.6°F18.1°C 76% Calm Calm -- 29.66 in1004.4 mb 0.00 in0.0 mm 0.00 in0.0 mm 0.00 in0.0 mm
12:11 PM 73.0°F22.8°C 64.6°F18.1°C 75% Calm Calm -- 29.65 in1004.1 mb 0.00 in0.0 mm 0.00 in0.0 mm 0.00 in0.0 mm
12:16 PM 73.0°F22.8°C 64.6°F18.1°C 75% Calm Calm -- 29.65 in1004.1 mb 0.00 in0.0 mm 0.00 in0.0 mm 0.00 in0.0 mm
12:21 PM 72.8°F22.7°C 63.3°F17.4°C 72% 3.1 mph NE5.0 kmh NE 3.1 mph5.0 kmh 29.65 in1004.1 mb 0.00 in0.0 mm 0.00 in0.0 mm 0.00 in0.0 mm
12:26 PM 73.0°F22.8°C 61.8°F16.6°C 68% 4.3 mph N6.9 kmh N 4.6 mph7.4 kmh 29.66 in1004.4 mb 0.00 in0.0 mm 0.00 in0.0 mm 0.00 in0.0 mm
12:31 PM 73.2°F22.9°C 61.6°F16.4°C 67% 3.0 mph NE4.8 kmh NE 4.6 mph7.4 kmh 29.66 in1004.4 mb 0.00 in0.0 mm 0.00 in0.0 mm 0.00 in0.0 mm
12:36 PM 73.2°F22.9°C 61.6°F16.4°C 68% 2.4 mph E3.9 kmh E 3.1 mph5.0 kmh 29.66 in1004.4 mb 0.00 in0.0 mm 0.00 in0.0 mm 0.00 in0.0 mm
12:41 PM 73.2°F22.9°C 62.0°F16.7°C 68% 2.3 mph NNE3.7 kmh NNE 4.4 mph7.1 kmh 29.66 in1004.4 mb 0.00 in0.0 mm 0.00 in0.0 mm 0.00 in0.0 mm
12:46 PM 73.2°F22.9°C 62.0°F16.7°C 68% 1.9 mph NNE3.1 kmh NNE 4.4 mph7.1 kmh 29.66 in1004.4 mb 0.00 in0.0 mm 0.00 in0.0 mm 0.00 in0.0 mm
12:51 PM 73.2°F22.9°C 62.0°F16.7°C 68% 2.8 mph NE4.5 kmh NE 4.4 mph7.1 kmh 29.66 in1004.4 mb 0.00 in0.0 mm 0.00 in0.0 mm 0.00 in0.0 mm
12:56 PM 73.2°F22.9°C 62.0°F16.7°C 68% 4.6 mph NE7.4 kmh NE 4.9 mph7.9 kmh 29.66 in1004.4 mb 0.00 in0.0 mm 0.00 in0.0 mm 0.00 in0.0 mm
01:01 PM 73.0°F22.8°C 61.8°F16.6°C 68% 4.4 mph NE7.1 kmh NE 4.9 mph7.9 kmh 29.66 in1004.4 mb 0.00 in0.0 mm 0.00 in0.0 mm 0.00 in0.0 mm
01:06 PM 73.0°F22.8°C 61.8°F16.6°C 69% 2.9 mph NE4.7 kmh NE 4.6 mph7.4 kmh 29.65 in1004.1 mb 0.00 in0.0 mm 0.00 in0.0 mm 0.00 in0.0 mm
01:11 PM 72.6°F22.6°C 61.5°F16.4°C 68% 1.9 mph NE3.1 kmh NE 6.0 mph9.7 kmh 29.65 in1004.1 mb 0.00 in0.0 mm 0.00 in0.0 mm 0.00 in0.0 mm
01:16 PM 72.5°F22.5°C 61.8°F16.6°C 69% 3.2 mph NNE5.1 kmh NNE 6.0 mph9.7 kmh 29.66 in1004.4 mb 0.00 in0.0 mm 0.00 in0.0 mm 0.00 in0.0 mm
01:21 PM 72.6°F22.6°C 61.0°F16.1°C 67% 3.4 mph NE5.5 kmh NE 7.8 mph12.6 kmh 29.66 in1004.4 mb 0.00 in0.0 mm 0.00 in0.0 mm 0.00 in0.0 mm
01:26 PM 72.8°F22.7°C 61.2°F16.2°C 67% 2.3 mph ENE3.7 kmh ENE 7.8 mph12.6 kmh 29.65 in1004.1 mb 0.00 in0.0 mm 0.00 in0.0 mm 0.00 in0.0 mm
01:31 PM 73.0°F22.8°C 60.9°F16.1°C 66% 4.2 mph ENE6.8 kmh ENE 6.9 mph11.1 kmh 29.65 in1004.1 mb 0.00 in0.0 mm 0.00 in0.0 mm 0.00 in0.0 mm
01:36 PM 73.4°F23.0°C 60.4°F15.8°C 64% 4.3 mph NE6.9 kmh NE 8.2 mph13.2 kmh 29.66 in1004.4 mb 0.00 in0.0 mm 0.00 in0.0 mm 0.00 in0.0 mm
01:41 PM 73.4°F23.0°C 60.4°F15.8°C 64% 6.8 mph N10.9 kmh N 9.1 mph14.6 kmh 29.66 in1004.4 mb 0.00 in0.0 mm 0.00 in0.0 mm 0.00 in0.0 mm
01:46 PM 73.5°F23.1°C 60.6°F15.9°C 64% 3.3 mph 5.3 kmh 9.1 mph14.6 kmh 29.66 in1004.4 mb 0.00 in0.0 mm 0.00 in0.0 mm 0.00 in0.0 mm
01:51 PM 73.7°F23.2°C 60.7°F15.9°C 64% 2.4 mph NNE3.9 kmh NNE 7.8 mph12.6 kmh 29.66 in1004.4 mb 0.00 in0.0 mm 0.00 in0.0 mm 0.00 in0.0 mm
01:57 PM 73.7°F23.2°C 60.7°F15.9°C 65% 2.5 mph E4.0 kmh E 7.8 mph12.6 kmh 29.67 in1004.7 mb 0.00 in0.0 mm 0.00 in0.0 mm 0.00 in0.0 mm
02:02 PM 73.7°F23.2°C 60.7°F15.9°C 65% 3.3 mph N5.3 kmh N 6.9 mph11.1 kmh 29.67 in1004.7 mb 0.00 in0.0 mm 0.00 in0.0 mm 0.00 in0.0 mm
02:07 PM 73.7°F23.2°C 61.2°F16.2°C 65% Calm Calm 6.4 mph10.3 kmh 29.66 in1004.4 mb 0.00 in0.0 mm 0.00 in0.0 mm 0.00 in0.0 mm
02:11 PM 73.7°F23.2°C 61.2°F16.2°C 65% 1.0 mph NNE1.6 kmh NNE 6.4 mph10.3 kmh 29.67 in1004.7 mb 0.00 in0.0 mm 0.00 in0.0 mm 0.00 in0.0 mm
02:16 PM 73.9°F23.3°C 61.4°F16.3°C 65% 3.6 mph NNE5.8 kmh NNE 4.9 mph7.9 kmh 29.66 in1004.4 mb 0.00 in0.0 mm 0.00 in0.0 mm 0.00 in0.0 mm
02:21 PM 73.9°F23.3°C 61.4°F16.3°C 65% 3.9 mph ENE6.3 kmh ENE 4.9 mph7.9 kmh 29.66 in1004.4 mb 0.00 in0.0 mm 0.00 in0.0 mm 0.00 in0.0 mm
02:26 PM 73.9°F23.3°C 61.4°F16.3°C 65% 4.5 mph NNE7.2 kmh NNE 5.1 mph8.2 kmh 29.66 in1004.4 mb 0.00 in0.0 mm 0.00 in0.0 mm 0.00 in0.0 mm
02:32 PM 74.1°F23.4°C 61.5°F16.4°C 65% 4.5 mph N7.2 kmh N 5.1 mph8.2 kmh 29.67 in1004.7 mb 0.00 in0.0 mm 0.00 in0.0 mm 0.00 in0.0 mm
02:37 PM 73.9°F23.3°C 61.4°F16.3°C 65% 7.5 mph NNE12.1 kmh NNE 10.0 mph16.1 kmh 29.67 in1004.7 mb 0.00 in0.0 mm 0.00 in0.0 mm 0.00 in0.0 mm
02:42 PM 73.9°F23.3°C 61.4°F16.3°C 65% 4.0 mph NE6.4 kmh NE 10.0 mph16.1 kmh 29.66 in1004.4 mb 0.00 in0.0 mm 0.00 in0.0 mm 0.00 in0.0 mm
02:47 PM 73.7°F23.2°C 61.2°F16.2°C 65% 3.7 mph NNE6.0 kmh NNE 7.3 mph11.7 kmh 29.66 in1004.4 mb 0.00 in0.0 mm 0.00 in0.0 mm 0.00 in0.0 mm
02:52 PM 73.4°F23.0°C 61.7°F16.5°C 67% 6.5 mph NNE10.5 kmh NNE 9.8 mph15.8 kmh 29.67 in1004.7 mb 0.00 in0.0 mm 0.00 in0.0 mm 0.00 in0.0 mm
02:57 PM 72.6°F22.6°C 61.9°F16.6°C 69% 1.9 mph NE3.1 kmh NE 9.8 mph15.8 kmh 29.66 in1004.4 mb 0.00 in0.0 mm 0.00 in0.0 mm 0.00 in0.0 mm
03:02 PM 72.1°F22.3°C 62.2°F16.8°C 71% 2.8 mph NE4.5 kmh NE 7.1 mph11.4 kmh 29.66 in1004.4 mb 0.00 in0.0 mm 0.00 in0.0 mm 0.00 in0.0 mm
03:07 PM 71.9°F22.2°C 62.0°F16.7°C 71% 4.5 mph NE7.2 kmh NE 7.3 mph11.7 kmh 29.67 in1004.7 mb 0.00 in0.0 mm 0.00 in0.0 mm 0.00 in0.0 mm
03:12 PM 72.1°F22.3°C 62.2°F16.8°C 70% 2.4 mph NE3.9 kmh NE 7.3 mph11.7 kmh 29.67 in1004.7 mb 0.00 in0.0 mm 0.00 in0.0 mm 0.00 in0.0 mm
03:17 PM 72.1°F22.3°C 62.2°F16.8°C 70% 3.3 mph NNE5.3 kmh NNE 3.8 mph6.1 kmh 29.67 in1004.7 mb 0.00 in0.0 mm 0.00 in0.0 mm 0.00 in0.0 mm
03:22 PM 72.1°F22.3°C 61.8°F16.6°C 70% 2.2 mph NNE3.5 kmh NNE 4.4 mph7.1 kmh 29.67 in1004.7 mb 0.00 in0.0 mm 0.00 in0.0 mm 0.00 in0.0 mm
03:27 PM 72.1°F22.3°C 61.4°F16.3°C 69% 2.8 mph NE4.5 kmh NE 4.4 mph7.1 kmh 29.67 in1004.7 mb 0.00 in0.0 mm 0.00 in0.0 mm 0.00 in0.0 mm
03:32 PM 72.3°F22.4°C 61.6°F16.4°C 69% 1.3 mph NE2.1 kmh NE 4.0 mph6.4 kmh 29.67 in1004.7 mb 0.00 in0.0 mm 0.00 in0.0 mm 0.00 in0.0 mm
03:37 PM 72.3°F22.4°C 62.0°F16.7°C 70% 1.8 mph NNE2.9 kmh NNE 5.5 mph8.9 kmh 29.67 in1004.7 mb 0.00 in0.0 mm 0.00 in0.0 mm 0.00 in0.0 mm
03:42 PM 71.9°F22.2°C 62.0°F16.7°C 71% 2.9 mph N4.7 kmh N 5.5 mph8.9 kmh 29.67 in1004.7 mb 0.00 in0.0 mm 0.00 in0.0 mm 0.00 in0.0 mm
03:46 PM 71.4°F21.9°C 61.9°F16.6°C 72% Calm Calm 5.5 mph8.9 kmh 29.67 in1004.7 mb 0.03 in0.8 mm 0.45 in11.4 mm 0.03 in0.8 mm
03:52 PM 70.8°F21.6°C 61.7°F16.5°C 73% Calm Calm 2.6 mph4.2 kmh 29.67 in1004.7 mb 0.03 in0.8 mm 0.00 in0.0 mm 0.03 in0.8 mm
03:57 PM 71.2°F21.8°C 62.1°F16.7°C 73% Calm Calm 2.4 mph3.9 kmh 29.67 in1004.7 mb 0.03 in0.8 mm 0.00 in0.0 mm 0.03 in0.8 mm
04:02 PM 71.4°F21.9°C 62.6°F17.0°C 74% Calm Calm -- 29.67 in1004.7 mb 0.03 in0.8 mm 0.00 in0.0 mm 0.03 in0.8 mm
04:07 PM 71.7°F22.1°C 63.4°F17.4°C 75% Calm Calm -- 29.67 in1004.7 mb 0.03 in0.8 mm 0.00 in0.0 mm 0.03 in0.8 mm
04:12 PM 71.9°F22.2°C 63.9°F17.7°C 76% Calm Calm -- 29.67 in1004.7 mb 0.03 in0.8 mm 0.00 in0.0 mm 0.03 in0.8 mm
04:17 PM 71.9°F22.2°C 63.9°F17.7°C 76% Calm Calm -- 29.67 in1004.7 mb 0.03 in0.8 mm 0.00 in0.0 mm 0.03 in0.8 mm
04:22 PM 72.5°F22.5°C 64.5°F18.1°C 76% Calm Calm -- 29.67 in1004.7 mb 0.03 in0.8 mm 0.00 in0.0 mm 0.03 in0.8 mm
04:27 PM 72.5°F22.5°C 64.5°F18.1°C 76% 4.0 mph NNE6.4 kmh NNE 4.0 mph6.4 kmh 29.67 in1004.7 mb 0.03 in0.8 mm 0.00 in0.0 mm 0.03 in0.8 mm
04:32 PM 72.5°F22.5°C 64.1°F17.8°C 75% 4.4 mph NNW7.1 kmh NNW 4.4 mph7.1 kmh 29.67 in1004.7 mb 0.03 in0.8 mm 0.00 in0.0 mm 0.03 in0.8 mm
04:37 PM 72.5°F22.5°C 62.6°F17.0°C 68% 4.4 mph N7.1 kmh N 4.4 mph7.1 kmh 29.66 in1004.4 mb 0.03 in0.8 mm 0.00 in0.0 mm 0.03 in0.8 mm
04:42 PM 73.0°F22.8°C 61.4°F16.3°C 67% 2.9 mph NNE4.7 kmh NNE 4.4 mph7.1 kmh 29.66 in1004.4 mb 0.03 in0.8 mm 0.00 in0.0 mm 0.03 in0.8 mm
04:47 PM 73.0°F22.8°C 61.4°F16.3°C 67% 4.9 mph NE7.9 kmh NE 5.1 mph8.2 kmh 29.66 in1004.4 mb 0.00 in0.0 mm 0.00 in0.0 mm 0.03 in0.8 mm
04:52 PM 73.0°F22.8°C 60.9°F16.1°C 65% 3.1 mph N5.0 kmh N 5.1 mph8.2 kmh 29.66 in1004.4 mb 0.00 in0.0 mm 0.00 in0.0 mm 0.03 in0.8 mm
04:57 PM 72.6°F22.6°C 60.2°F15.7°C 66% 3.1 mph NE5.0 kmh NE 5.1 mph8.2 kmh 29.66 in1004.4 mb 0.00 in0.0 mm 0.00 in0.0 mm 0.03 in0.8 mm
05:02 PM 72.5°F22.5°C 60.0°F15.6°C 65% 5.8 mph NNE9.3 kmh NNE 5.8 mph9.3 kmh 29.66 in1004.4 mb 0.00 in0.0 mm 0.00 in0.0 mm 0.03 in0.8 mm
05:08 PM 72.3°F22.4°C 60.3°F15.7°C 66% 3.8 mph NE6.1 kmh NE 5.8 mph9.3 kmh 29.66 in1004.4 mb 0.00 in0.0 mm 0.00 in0.0 mm 0.03 in0.8 mm
05:13 PM 72.1°F22.3°C 60.1°F15.6°C 66% 3.2 mph NNE5.1 kmh NNE 6.4 mph10.3 kmh 29.66 in1004.4 mb 0.00 in0.0 mm 0.00 in0.0 mm 0.03 in0.8 mm
05:18 PM 72.1°F22.3°C 60.1°F15.6°C 66% 1.7 mph NNE2.7 kmh NNE 6.4 mph10.3 kmh 29.66 in1004.4 mb 0.00 in0.0 mm 0.00 in0.0 mm 0.03 in0.8 mm
05:23 PM 72.1°F22.3°C 60.1°F15.6°C 66% 0.8 mph NE1.3 kmh NE 4.0 mph6.4 kmh 29.66 in1004.4 mb 0.00 in0.0 mm 0.00 in0.0 mm 0.03 in0.8 mm
05:28 PM 71.7°F22.1°C 59.7°F15.4°C 66% 2.2 mph NE3.5 kmh NE 4.0 mph6.4 kmh 29.66 in1004.4 mb 0.00 in0.0 mm 0.00 in0.0 mm 0.03 in0.8 mm
05:33 PM 71.4°F21.9°C 59.8°F15.4°C 67% 3.2 mph NNE5.1 kmh NNE 4.2 mph6.8 kmh 29.66 in1004.4 mb 0.00 in0.0 mm 0.00 in0.0 mm 0.03 in0.8 mm
05:38 PM 71.2°F21.8°C 60.1°F15.6°C 68% 2.0 mph 3.2 kmh 4.2 mph6.8 kmh 29.67 in1004.7 mb 0.00 in0.0 mm 0.00 in0.0 mm 0.03 in0.8 mm
05:43 PM 70.8°F21.6°C 60.6°F15.9°C 70% 0.7 mph WNW1.1 kmh WNW 4.2 mph6.8 kmh 29.67 in1004.7 mb 0.00 in0.0 mm 0.00 in0.0 mm 0.03 in0.8 mm
05:48 PM 70.3°F21.3°C 61.2°F16.2°C 73% 2.2 mph NNW3.5 kmh NNW 2.2 mph3.5 kmh 29.67 in1004.7 mb 0.00 in0.0 mm 0.00 in0.0 mm 0.03 in0.8 mm
05:53 PM 69.4°F20.8°C 61.4°F16.3°C 76% 2.5 mph SSW4.0 kmh SSW 5.3 mph8.5 kmh 29.67 in1004.7 mb 0.00 in0.0 mm 0.00 in0.0 mm 0.03 in0.8 mm
05:58 PM 68.3°F20.2°C 61.6°F16.4°C 79% 1.6 mph SSW2.6 kmh SSW 5.3 mph8.5 kmh 29.67 in1004.7 mb 0.00 in0.0 mm 0.00 in0.0 mm 0.03 in0.8 mm
06:03 PM 67.6°F19.8°C 61.6°F16.4°C 81% 3.3 mph SSW5.3 kmh SSW 3.8 mph6.1 kmh 29.67 in1004.7 mb 0.00 in0.0 mm 0.00 in0.0 mm 0.03 in0.8 mm
06:08 PM 67.4°F19.7°C 61.4°F16.3°C 81% 0.4 mph S0.6 kmh S 3.8 mph6.1 kmh 29.67 in1004.7 mb 0.00 in0.0 mm 0.00 in0.0 mm 0.03 in0.8 mm
06:13 PM 67.2°F19.6°C 61.6°F16.4°C 82% Calm Calm 0.4 mph0.6 kmh 29.68 in1005.1 mb 0.00 in0.0 mm 0.00 in0.0 mm 0.03 in0.8 mm
06:18 PM 67.2°F19.6°C 61.6°F16.4°C 82% Calm Calm 0.4 mph0.6 kmh 29.68 in1005.1 mb 0.00 in0.0 mm 0.00 in0.0 mm 0.03 in0.8 mm
06:23 PM 67.4°F19.7°C 61.8°F16.6°C 82% Calm Calm -- 29.68 in1005.1 mb 0.00 in0.0 mm 0.00 in0.0 mm 0.03 in0.8 mm
06:28 PM 67.2°F19.6°C 61.9°F16.6°C 83% 0.4 mph SSW0.6 kmh SSW 0.4 mph0.6 kmh 29.68 in1005.1 mb 0.00 in0.0 mm 0.00 in0.0 mm 0.03 in0.8 mm
06:33 PM 66.9°F19.4°C 61.9°F16.6°C 84% 1.7 mph SSW2.7 kmh SSW 3.5 mph5.6 kmh 29.68 in1005.1 mb 0.00 in0.0 mm 0.00 in0.0 mm 0.03 in0.8 mm
06:38 PM 66.7°F19.3°C 61.7°F16.5°C 84% 2.5 mph SW4.0 kmh SW 3.5 mph5.6 kmh 29.68 in1005.1 mb 0.00 in0.0 mm 0.00 in0.0 mm 0.03 in0.8 mm
06:43 PM 66.5°F19.2°C 61.8°F16.6°C 85% 0.8 mph S1.3 kmh S 3.5 mph5.6 kmh 29.68 in1005.1 mb 0.00 in0.0 mm 0.00 in0.0 mm 0.03 in0.8 mm
06:48 PM 66.3°F19.1°C 62.0°F16.7°C 86% 1.5 mph S2.4 kmh S 3.3 mph5.3 kmh 29.68 in1005.1 mb 0.00 in0.0 mm 0.00 in0.0 mm 0.03 in0.8 mm
06:53 PM 66.0°F18.9°C 61.6°F16.4°C 86% Calm Calm 2.6 mph4.2 kmh 29.68 in1005.1 mb 0.00 in0.0 mm 0.00 in0.0 mm 0.03 in0.8 mm
06:58 PM 66.2°F19.0°C 61.8°F16.6°C 86% 1.6 mph SSW2.6 kmh SSW 2.6 mph4.2 kmh 29.68 in1005.1 mb 0.00 in0.0 mm 0.00 in0.0 mm 0.03 in0.8 mm
07:03 PM 66.3°F19.1°C 62.0°F16.7°C 86% 1.6 mph S2.6 kmh S 2.6 mph4.2 kmh 29.68 in1005.1 mb 0.00 in0.0 mm 0.00 in0.0 mm 0.03 in0.8 mm
07:08 PM 66.3°F19.1°C 62.0°F16.7°C 86% 1.7 mph SSW2.7 kmh SSW 2.4 mph3.9 kmh 29.68 in1005.1 mb 0.00 in0.0 mm 0.00 in0.0 mm 0.03 in0.8 mm
07:13 PM 66.5°F19.2°C 61.8°F16.6°C 85% 2.0 mph SSW3.2 kmh SSW 2.0 mph3.2 kmh 29.68 in1005.1 mb 0.00 in0.0 mm 0.00 in0.0 mm 0.03 in0.8 mm
07:18 PM 66.9°F19.4°C 61.9°F16.6°C 84% 2.9 mph SSE4.7 kmh SSE 2.9 mph4.7 kmh 29.68 in1005.1 mb 0.00 in0.0 mm 0.00 in0.0 mm 0.03 in0.8 mm
07:23 PM 67.1°F19.5°C 62.0°F16.7°C 84% Calm Calm 2.9 mph4.7 kmh 29.68 in1005.1 mb 0.00 in0.0 mm 0.00 in0.0 mm 0.03 in0.8 mm
07:28 PM 67.2°F19.6°C 62.2°F16.8°C 84% Calm Calm 0.4 mph0.6 kmh 29.68 in1005.1 mb 0.00 in0.0 mm 0.00 in0.0 mm 0.03 in0.8 mm
07:33 PM 66.5°F19.2°C 61.8°F16.6°C 85% 3.8 mph S6.1 kmh S 3.8 mph6.1 kmh 29.68 in1005.1 mb 0.00 in0.0 mm 0.00 in0.0 mm 0.03 in0.8 mm
07:38 PM 66.3°F19.1°C 61.7°F16.5°C 86% Calm Calm 3.8 mph6.1 kmh 29.68 in1005.1 mb 0.00 in0.0 mm 0.00 in0.0 mm 0.03 in0.8 mm
07:43 PM 66.2°F19.0°C 61.8°F16.6°C 86% Calm Calm 2.2 mph3.5 kmh 29.68 in1005.1 mb 0.00 in0.0 mm 0.00 in0.0 mm 0.03 in0.8 mm
07:48 PM 66.3°F19.1°C 62.3°F16.8°C 87% Calm Calm 2.2 mph3.5 kmh 29.68 in1005.1 mb 0.00 in0.0 mm 0.00 in0.0 mm 0.03 in0.8 mm
07:53 PM 66.3°F19.1°C 62.3°F16.8°C 87% Calm Calm -- 29.68 in1005.1 mb 0.00 in0.0 mm 0.00 in0.0 mm 0.03 in0.8 mm
07:58 PM 66.3°F19.1°C 62.3°F16.8°C 87% 2.0 mph SSW3.2 kmh SSW 2.0 mph3.2 kmh 29.68 in1005.1 mb 0.00 in0.0 mm 0.00 in0.0 mm 0.03 in0.8 mm
08:03 PM 66.3°F19.1°C 62.6°F17.0°C 87% 0.6 mph WSW1.0 kmh WSW 2.0 mph3.2 kmh 29.68 in1005.1 mb 0.00 in0.0 mm 0.00 in0.0 mm 0.03 in0.8 mm
08:08 PM 66.0°F18.9°C 62.0°F16.7°C 87% 1.3 mph SW2.1 kmh SW 2.0 mph3.2 kmh 29.69 in1005.4 mb 0.00 in0.0 mm 0.00 in0.0 mm 0.03 in0.8 mm
08:13 PM 65.8°F18.8°C 62.1°F16.7°C 88% 1.5 mph SW2.4 kmh SW 2.6 mph4.2 kmh 29.69 in1005.4 mb 0.00 in0.0 mm 0.00 in0.0 mm 0.03 in0.8 mm
08:18 PM 66.0°F18.9°C 62.3°F16.8°C 88% Calm Calm 2.6 mph4.2 kmh 29.69 in1005.4 mb 0.00 in0.0 mm 0.00 in0.0 mm 0.03 in0.8 mm
08:23 PM 66.0°F18.9°C 62.3°F16.8°C 88% Calm Calm 1.5 mph2.4 kmh 29.70 in1005.8 mb 0.00 in0.0 mm 0.00 in0.0 mm 0.03 in0.8 mm
08:28 PM 66.0°F18.9°C 62.3°F16.8°C 88% Calm Calm -- 29.70 in1005.8 mb 0.00 in0.0 mm 0.00 in0.0 mm 0.03 in0.8 mm
08:33 PM 65.8°F18.8°C 62.1°F16.7°C 88% 2.0 mph SSW3.2 kmh SSW 2.0 mph3.2 kmh 29.70 in1005.8 mb 0.00 in0.0 mm 0.00 in0.0 mm 0.03 in0.8 mm
08:38 PM 65.8°F18.8°C 62.1°F16.7°C 88% 0.4 mph W0.6 kmh W 2.0 mph3.2 kmh 29.71 in1006.1 mb 0.00 in0.0 mm 0.00 in0.0 mm 0.03 in0.8 mm
08:43 PM 65.4°F18.6°C 62.1°F16.7°C 89% 4.3 mph WSW6.9 kmh WSW 6.7 mph10.8 kmh 29.71 in1006.1 mb 0.00 in0.0 mm 0.00 in0.0 mm 0.03 in0.8 mm
08:48 PM 65.3°F18.5°C 61.9°F16.6°C 89% 4.2 mph SSW6.8 kmh SSW 6.7 mph10.8 kmh 29.71 in1006.1 mb 0.00 in0.0 mm 0.00 in0.0 mm 0.03 in0.8 mm
08:53 PM 65.1°F18.4°C 61.8°F16.6°C 89% 1.5 mph SSW2.4 kmh SSW 4.4 mph7.1 kmh 29.71 in1006.1 mb 0.00 in0.0 mm 0.00 in0.0 mm 0.03 in0.8 mm
08:58 PM 65.1°F18.4°C 61.8°F16.6°C 89% 2.9 mph SSW4.7 kmh SSW 4.4 mph7.1 kmh 29.72 in1006.4 mb 0.00 in0.0 mm 0.00 in0.0 mm 0.03 in0.8 mm
09:03 PM 65.3°F18.5°C 61.9°F16.6°C 89% 1.3 mph SSW2.1 kmh SSW 2.9 mph4.7 kmh 29.72 in1006.4 mb 0.00 in0.0 mm 0.00 in0.0 mm 0.03 in0.8 mm
09:08 PM 65.3°F18.5°C 61.9°F16.6°C 89% 1.3 mph SSW2.1 kmh SSW 1.7 mph2.7 kmh 29.72 in1006.4 mb 0.00 in0.0 mm 0.00 in0.0 mm 0.03 in0.8 mm
09:13 PM 65.3°F18.5°C 61.9°F16.6°C 89% 0.4 mph S0.6 kmh S 1.7 mph2.7 kmh 29.72 in1006.4 mb 0.00 in0.0 mm 0.00 in0.0 mm 0.03 in0.8 mm
09:18 PM 65.4°F18.6°C 61.8°F16.6°C 88% 2.9 mph SSW4.7 kmh SSW 2.9 mph4.7 kmh 29.72 in1006.4 mb 0.00 in0.0 mm 0.00 in0.0 mm 0.03 in0.8 mm
09:23 PM 65.8°F18.8°C 62.1°F16.7°C 87% 2.1 mph SSW3.4 kmh SSW 3.5 mph5.6 kmh 29.72 in1006.4 mb 0.00 in0.0 mm 0.00 in0.0 mm 0.03 in0.8 mm
09:28 PM 65.8°F18.8°C 62.1°F16.7°C 87% 2.8 mph SW4.5 kmh SW 3.5 mph5.6 kmh 29.72 in1006.4 mb 0.00 in0.0 mm 0.00 in0.0 mm 0.03 in0.8 mm
09:33 PM 65.8°F18.8°C 62.1°F16.7°C 87% 2.6 mph SW4.2 kmh SW 3.1 mph5.0 kmh 29.72 in1006.4 mb 0.00 in0.0 mm 0.00 in0.0 mm 0.03 in0.8 mm
09:38 PM 65.8°F18.8°C 62.1°F16.7°C 87% 2.2 mph S3.5 kmh S 2.9 mph4.7 kmh 29.72 in1006.4 mb 0.00 in0.0 mm 0.00 in0.0 mm 0.03 in0.8 mm
09:43 PM 65.8°F18.8°C 62.1°F16.7°C 87% 1.6 mph SSW2.6 kmh SSW 2.6 mph4.2 kmh 29.72 in1006.4 mb 0.00 in0.0 mm 0.00 in0.0 mm 0.03 in0.8 mm
09:48 PM 65.4°F18.6°C 61.5°F16.4°C 87% 1.4 mph SSE2.3 kmh SSE 2.2 mph3.5 kmh 29.72 in1006.4 mb 0.00 in0.0 mm 0.00 in0.0 mm 0.03 in0.8 mm
09:53 PM 65.4°F18.6°C 61.5°F16.4°C 87% 1.7 mph SW2.7 kmh SW 2.4 mph3.9 kmh 29.72 in1006.4 mb 0.00 in0.0 mm 0.00 in0.0 mm 0.03 in0.8 mm
09:58 PM 65.4°F18.6°C 61.5°F16.4°C 87% 2.2 mph S3.5 kmh S 2.6 mph4.2 kmh 29.72 in1006.4 mb 0.00 in0.0 mm 0.00 in0.0 mm 0.03 in0.8 mm
10:03 PM 65.4°F18.6°C 61.5°F16.4°C 87% 2.0 mph WSW3.2 kmh WSW 2.6 mph4.2 kmh 29.72 in1006.4 mb 0.00 in0.0 mm 0.00 in0.0 mm 0.03 in0.8 mm
10:08 PM 65.4°F18.6°C 61.5°F16.4°C 87% 1.1 mph SSW1.8 kmh SSW 2.2 mph3.5 kmh 29.72 in1006.4 mb 0.00 in0.0 mm 0.00 in0.0 mm 0.03 in0.8 mm
10:13 PM 65.4°F18.6°C 61.5°F16.4°C 88% 1.7 mph S2.7 kmh S 2.0 mph3.2 kmh 29.72 in1006.4 mb 0.00 in0.0 mm 0.00 in0.0 mm 0.03 in0.8 mm
10:18 PM 65.4°F18.6°C 61.5°F16.4°C 88% 2.4 mph SSW3.9 kmh SSW 2.4 mph3.9 kmh 29.72 in1006.4 mb 0.00 in0.0 mm 0.00 in0.0 mm 0.03 in0.8 mm
10:23 PM 65.4°F18.6°C 61.5°F16.4°C 88% 1.5 mph S2.4 kmh S 2.4 mph3.9 kmh 29.73 in1006.8 mb 0.00 in0.0 mm 0.00 in0.0 mm 0.03 in0.8 mm
10:29 PM 65.3°F18.5°C 61.6°F16.4°C 88% 3.1 mph SW5.0 kmh SW 3.1 mph5.0 kmh 29.73 in1006.8 mb 0.00 in0.0 mm 0.00 in0.0 mm 0.03 in0.8 mm
10:34 PM 65.1°F18.4°C 61.5°F16.4°C 88% 2.9 mph SW4.7 kmh SW 3.1 mph5.0 kmh 29.73 in1006.8 mb 0.00 in0.0 mm 0.00 in0.0 mm 0.03 in0.8 mm
10:39 PM 65.1°F18.4°C 61.5°F16.4°C 88% 2.4 mph SW3.9 kmh SW 3.3 mph5.3 kmh 29.73 in1006.8 mb 0.00 in0.0 mm 0.00 in0.0 mm 0.03 in0.8 mm
10:43 PM 65.1°F18.4°C 61.5°F16.4°C 89% 1.7 mph SSW2.7 kmh SSW 3.3 mph5.3 kmh 29.73 in1006.8 mb 0.00 in0.0 mm 0.00 in0.0 mm 0.03 in0.8 mm
10:48 PM 65.1°F18.4°C 61.5°F16.4°C 89% 2.6 mph SW4.2 kmh SW 3.3 mph5.3 kmh 29.73 in1006.8 mb 0.00 in0.0 mm 0.00 in0.0 mm 0.03 in0.8 mm
10:53 PM 65.1°F18.4°C 61.5°F16.4°C 88% 3.5 mph SSW5.6 kmh SSW 4.2 mph6.8 kmh 29.73 in1006.8 mb 0.00 in0.0 mm 0.00 in0.0 mm 0.03 in0.8 mm
10:58 PM 65.4°F18.6°C 61.8°F16.6°C 88% 3.4 mph S5.5 kmh S 4.2 mph6.8 kmh 29.73 in1006.8 mb 0.00 in0.0 mm 0.00 in0.0 mm 0.03 in0.8 mm
11:04 PM 65.8°F18.8°C 61.8°F16.6°C 87% 1.8 mph SW2.9 kmh SW 3.5 mph5.6 kmh 29.73 in1006.8 mb 0.00 in0.0 mm 0.00 in0.0 mm 0.03 in0.8 mm
11:09 PM 65.8°F18.8°C 61.8°F16.6°C 86% 2.0 mph SSW3.2 kmh SSW 3.3 mph5.3 kmh 29.73 in1006.8 mb 0.00 in0.0 mm 0.00 in0.0 mm 0.03 in0.8 mm
11:14 PM 66.0°F18.9°C 61.6°F16.4°C 85% 1.7 mph SSW2.7 kmh SSW 2.2 mph3.5 kmh 29.73 in1006.8 mb 0.00 in0.0 mm 0.00 in0.0 mm 0.03 in0.8 mm
11:19 PM 66.0°F18.9°C 61.6°F16.4°C 85% 1.9 mph SSW3.1 kmh SSW 2.2 mph3.5 kmh 29.73 in1006.8 mb 0.00 in0.0 mm 0.00 in0.0 mm 0.03 in0.8 mm
11:24 PM 66.0°F18.9°C 61.6°F16.4°C 85% 0.8 mph SSW1.3 kmh SSW 2.0 mph3.2 kmh 29.73 in1006.8 mb 0.00 in0.0 mm 0.00 in0.0 mm 0.03 in0.8 mm
11:29 PM 66.0°F18.9°C 61.6°F16.4°C 84% 1.3 mph SW2.1 kmh SW 2.0 mph3.2 kmh 29.73 in1006.8 mb 0.00 in0.0 mm 0.00 in0.0 mm 0.03 in0.8 mm
11:34 PM 65.8°F18.8°C 60.8°F16.0°C 84% 1.3 mph S2.1 kmh S 1.3 mph2.1 kmh 29.73 in1006.8 mb 0.00 in0.0 mm 0.00 in0.0 mm 0.03 in0.8 mm
11:39 PM 65.8°F18.8°C 60.8°F16.0°C 84% Calm Calm 1.3 mph2.1 kmh 29.73 in1006.8 mb 0.00 in0.0 mm 0.00 in0.0 mm 0.03 in0.8 mm
11:44 PM 65.3°F18.5°C 60.6°F15.9°C 85% 2.2 mph SSW3.5 kmh SSW 2.2 mph3.5 kmh 29.73 in1006.8 mb 0.00 in0.0 mm 0.00 in0.0 mm 0.03 in0.8 mm
11:49 PM 65.1°F18.4°C 60.4°F15.8°C 85% 1.7 mph WSW2.7 kmh WSW 2.2 mph3.5 kmh 29.73 in1006.8 mb 0.00 in0.0 mm 0.00 in0.0 mm 0.03 in0.8 mm
11:54 PM 64.9°F18.3°C 60.6°F15.9°C 86% 1.5 mph S2.4 kmh S 1.7 mph2.7 kmh 29.73 in1006.8 mb 0.00 in0.0 mm 0.00 in0.0 mm 0.03 in0.8 mm
11:59 PM 64.9°F18.3°C 60.6°F15.9°C 87% 2.4 mph SW3.9 kmh SW 2.4 mph3.9 kmh 29.73 in1006.8 mb 0.00 in0.0 mm 0.00 in0.0 mm 0.03 in0.8 mm